createdAt,value
2022-10-13T00:01:08.486Z,45.83
2022-10-13T00:03:42.060Z,42.63
2022-10-13T00:06:16.129Z,42.55
2022-10-13T00:08:49.490Z,43.03
2022-10-13T00:11:23.946Z,42.85
2022-10-13T00:13:57.114Z,44.33
2022-10-13T00:16:29.739Z,46.80
2022-10-13T00:19:02.199Z,45.47
2022-10-13T00:21:34.147Z,47.13
2022-10-13T00:24:11.079Z,44.50
2022-10-13T00:26:43.088Z,43.13
2022-10-13T00:29:16.873Z,41.85
2022-10-13T00:31:48.857Z,41.88
2022-10-13T00:34:20.787Z,41.97
2022-10-13T00:36:52.800Z,42.20
2022-10-13T00:39:26.069Z,40.42
2022-10-13T00:41:58.586Z,38.03
2022-10-13T00:45:07.291Z,37.00
2022-10-13T00:47:43.594Z,37.27
2022-10-13T00:50:19.968Z,37.05
2022-10-13T00:52:57.307Z,33.30
2022-10-13T00:55:36.786Z,30.95
2022-10-13T00:58:12.521Z,32.03
2022-10-13T01:00:47.059Z,31.52
2022-10-13T01:03:21.838Z,27.88
2022-10-13T01:05:57.141Z,27.00
2022-10-13T01:08:29.835Z,26.00
2022-10-13T01:11:20.923Z,23.67
2022-10-13T01:14:00.075Z,24.92
2022-10-13T01:16:39.801Z,23.20
2022-10-13T01:19:30.206Z,20.38
2022-10-13T01:22:14.009Z,21.60
2022-10-13T01:24:53.276Z,20.92
2022-10-13T01:27:56.300Z,24.42
2022-10-13T01:30:35.209Z,23.85
2022-10-13T01:33:20.033Z,20.33
2022-10-13T01:36:06.496Z,22.33
2022-10-13T01:38:47.823Z,23.15
2022-10-13T01:41:26.175Z,24.10
2022-10-13T01:44:02.961Z,31.70
2022-10-13T01:46:38.476Z,23.55
2022-10-13T01:49:12.629Z,25.15
2022-10-13T01:51:45.248Z,25.02
2022-10-13T01:54:17.192Z,28.65
2022-10-13T01:56:53.215Z,25.70
2022-10-13T01:59:27.839Z,25.60
2022-10-13T02:02:10.628Z,24.58
2022-10-13T02:04:54.059Z,21.45
2022-10-13T02:07:33.283Z,21.90
2022-10-13T02:10:13.011Z,22.27
2022-10-13T02:12:51.465Z,30.10
2022-10-13T02:15:28.662Z,25.33
2022-10-13T02:18:04.751Z,23.10
2022-10-13T02:20:37.381Z,24.10
2022-10-13T02:23:12.402Z,24.40
2022-10-13T02:25:45.653Z,26.60
2022-10-13T02:28:19.179Z,26.48
2022-10-13T02:30:51.469Z,21.98
2022-10-13T02:33:24.820Z,23.20
2022-10-13T02:35:56.723Z,23.05
2022-10-13T02:38:28.639Z,24.25
2022-10-13T02:41:01.655Z,22.13
2022-10-13T02:43:37.208Z,20.73
2022-10-13T02:46:09.172Z,18.90
2022-10-13T02:48:42.469Z,17.77
2022-10-13T02:51:14.550Z,18.23
2022-10-13T02:53:46.724Z,20.10
2022-10-13T02:56:19.297Z,18.92
2022-10-13T02:58:51.879Z,18.30
2022-10-13T03:01:23.778Z,21.15
2022-10-13T03:03:57.194Z,18.90
2022-10-13T03:06:29.078Z,20.65
2022-10-13T03:09:01.037Z,18.40
2022-10-13T03:11:33.078Z,18.08
2022-10-13T03:14:05.248Z,20.13
2022-10-13T03:16:37.165Z,20.98
2022-10-13T03:19:16.405Z,21.90
2022-10-13T03:21:48.337Z,26.50
2022-10-13T03:24:20.257Z,29.02
2022-10-13T03:26:52.162Z,29.17
2022-10-13T03:29:25.121Z,26.92
2022-10-13T03:31:57.059Z,29.90
2022-10-13T03:34:30.495Z,27.38
2022-10-13T03:37:03.047Z,25.88
2022-10-13T03:39:38.894Z,24.70
2022-10-13T03:42:12.198Z,25.77
2022-10-13T03:44:44.380Z,23.38
2022-10-13T03:47:16.341Z,24.58
2022-10-13T03:49:49.744Z,21.90
2022-10-13T03:52:22.121Z,21.30
2022-10-13T03:54:54.439Z,22.77
2022-10-13T03:57:26.360Z,20.40
2022-10-13T03:59:58.939Z,22.05
2022-10-13T04:02:31.878Z,21.70
2022-10-13T04:05:06.661Z,20.45
2022-10-13T04:07:38.581Z,19.75
2022-10-13T04:10:23.354Z,20.23
2022-10-13T04:12:55.325Z,20.70
2022-10-13T04:15:27.487Z,21.23
2022-10-13T04:17:59.476Z,20.10
2022-10-13T04:20:37.783Z,19.55
2022-10-13T04:23:09.770Z,19.02
2022-10-13T04:25:45.218Z,21.13
2022-10-13T04:28:17.463Z,18.10
2022-10-13T04:30:49.768Z,16.17
2022-10-13T04:33:21.786Z,17.42
2022-10-13T04:35:55.210Z,16.77
2022-10-13T04:38:27.124Z,16.50
2022-10-13T04:40:59.157Z,15.18
2022-10-13T04:43:33.875Z,17.25
2022-10-13T04:46:08.349Z,15.80
2022-10-13T04:48:40.982Z,15.10
2022-10-13T04:51:16.260Z,15.80
2022-10-13T04:53:48.363Z,12.20
2022-10-13T04:56:21.687Z,15.45
2022-10-13T04:58:54.349Z,14.70
2022-10-13T05:01:26.727Z,14.25
2022-10-13T05:04:01.687Z,15.10
2022-10-13T05:06:58.770Z,15.07
2022-10-13T05:09:31.146Z,16.00
2022-10-13T05:12:03.161Z,13.75
2022-10-13T05:14:35.314Z,16.30
2022-10-13T05:17:09.818Z,15.15
2022-10-13T05:19:41.752Z,19.10
2022-10-13T05:22:15.110Z,24.23
2022-10-13T05:24:47.065Z,23.80
2022-10-13T05:27:19.094Z,25.13
2022-10-13T05:29:51.037Z,24.40
2022-10-13T05:32:23.158Z,25.63
2022-10-13T05:34:55.229Z,24.52
2022-10-13T05:37:28.613Z,26.85
2022-10-13T05:40:00.633Z,24.73
2022-10-13T05:42:35.357Z,24.20
2022-10-13T05:45:09.193Z,22.13
2022-10-13T05:47:41.200Z,22.85
2022-10-13T05:50:13.215Z,23.88
2022-10-13T05:52:47.942Z,26.88
2022-10-13T05:55:20.134Z,20.15
2022-10-13T05:57:52.800Z,24.83
2022-10-13T06:00:24.912Z,22.38
2022-10-13T06:03:07.440Z,19.33
2022-10-13T06:05:40.815Z,17.70
2022-10-13T06:08:14.811Z,16.80
2022-10-13T06:10:47.419Z,23.38
2022-10-13T06:13:19.783Z,20.63
2022-10-13T06:15:51.889Z,17.55
2022-10-13T06:18:23.947Z,13.18
2022-10-13T06:20:55.890Z,13.25
2022-10-13T06:23:29.204Z,15.88
2022-10-13T06:26:01.162Z,15.45
2022-10-13T06:28:35.927Z,10.55
2022-10-13T06:31:08.040Z,10.55
2022-10-13T06:33:40.382Z,13.93
2022-10-13T06:36:12.598Z,11.50
2022-10-13T06:38:46.988Z,9.95
2022-10-13T06:41:19.256Z,11.90
2022-10-13T06:43:51.297Z,11.43
2022-10-13T06:46:23.289Z,13.88
2022-10-13T06:48:55.319Z,10.30
2022-10-13T06:51:27.379Z,8.23
2022-10-13T06:54:00.776Z,9.02
2022-10-13T06:56:33.158Z,9.27
2022-10-13T06:59:10.625Z,9.98
2022-10-13T07:01:42.725Z,12.20
2022-10-13T07:04:17.497Z,9.95
2022-10-13T07:06:50.881Z,12.02
2022-10-13T07:09:24.491Z,11.07
2022-10-13T07:11:56.447Z,13.02
2022-10-13T07:14:28.575Z,13.48
2022-10-13T07:17:00.624Z,12.18
2022-10-13T07:19:32.674Z,13.73
2022-10-13T07:22:05.114Z,10.85
2022-10-13T07:24:38.622Z,10.32
2022-10-13T07:27:10.618Z,12.60
2022-10-13T07:29:42.575Z,12.70
2022-10-13T07:32:14.495Z,13.60
2022-10-13T07:34:46.591Z,15.75
2022-10-13T07:37:18.757Z,14.43
2022-10-13T07:39:52.560Z,18.02
2022-10-13T07:42:24.511Z,21.58
2022-10-13T07:44:56.552Z,15.80
2022-10-13T07:47:30.936Z,14.63
2022-10-13T07:50:03.111Z,15.30
2022-10-13T07:52:35.936Z,14.77
2022-10-13T07:55:09.893Z,17.08
2022-10-13T07:57:41.869Z,16.13
2022-10-13T08:00:14.416Z,14.45
2022-10-13T08:02:50.323Z,22.23
2022-10-13T08:05:22.446Z,14.35
2022-10-13T08:07:56.093Z,19.23
2022-10-13T08:10:31.819Z,13.85
2022-10-13T08:13:03.802Z,15.65
2022-10-13T08:15:35.768Z,16.65
2022-10-13T08:18:07.760Z,15.68
2022-10-13T08:20:43.386Z,12.27
2022-10-13T08:23:15.798Z,12.20
2022-10-13T08:25:57.277Z,10.87
2022-10-13T08:28:29.551Z,11.13
2022-10-13T08:31:02.231Z,13.43
2022-10-13T08:33:34.318Z,13.20
2022-10-13T08:36:07.253Z,14.98
2022-10-13T08:38:39.165Z,13.80
2022-10-13T08:41:18.386Z,13.00
2022-10-13T08:46:50.864Z,13.52
2022-10-13T08:49:22.834Z,12.25
2022-10-13T08:51:55.729Z,15.93
2022-10-13T08:54:27.776Z,16.77
2022-10-13T08:59:38.569Z,15.52
2022-10-13T09:02:14.814Z,27.90
2022-10-13T09:04:49.566Z,16.35
2022-10-13T09:07:24.759Z,63.58
2022-10-13T09:09:56.706Z,13.50
2022-10-13T09:12:31.592Z,26.48
2022-10-13T09:15:07.402Z,11.32
2022-10-13T09:17:41.036Z,11.77
2022-10-13T09:20:20.528Z,12.40
2022-10-13T09:23:03.226Z,11.77
2022-10-13T09:25:40.367Z,12.18
2022-10-13T09:28:19.653Z,12.27
2022-10-13T09:31:03.380Z,14.10
2022-10-13T09:33:37.330Z,14.10
2022-10-13T09:36:12.802Z,16.15
2022-10-13T09:39:05.983Z,57.33
2022-10-13T09:41:39.421Z,24.88
2022-10-13T09:44:14.913Z,19.90
2022-10-13T09:49:38.862Z,13.57
2022-10-13T09:52:18.484Z,12.75
2022-10-13T09:54:52.239Z,12.70
2022-10-13T09:57:31.627Z,11.45
2022-10-13T10:00:14.747Z,11.10
2022-10-13T10:02:54.138Z,11.57
2022-10-13T10:05:29.914Z,13.90
2022-10-13T10:08:11.158Z,13.93
2022-10-13T10:10:43.718Z,13.80
2022-10-13T10:13:15.643Z,16.67
2022-10-13T10:15:55.991Z,21.30
2022-10-13T10:18:35.468Z,17.38
2022-10-13T10:21:12.256Z,14.97
2022-10-13T10:23:52.054Z,10.27
2022-10-13T10:26:32.692Z,38.05
2022-10-13T10:29:19.741Z,12.20
2022-10-13T10:32:04.057Z,11.48
2022-10-13T10:34:40.341Z,10.68
2022-10-13T10:37:33.110Z,11.23
2022-10-13T10:40:23.181Z,10.52
2022-10-13T10:43:26.264Z,85.45
2022-10-13T10:45:59.962Z,14.75
2022-10-13T10:48:39.675Z,14.50
2022-10-13T10:51:12.380Z,17.63
2022-10-13T10:54:00.277Z,9.27
2022-10-13T10:56:35.691Z,10.50
2022-10-13T10:59:27.962Z,9.75
2022-10-13T11:02:24.516Z,11.38
2022-10-13T11:05:05.203Z,7.80
2022-10-13T11:07:59.969Z,7.53
2022-10-13T11:10:32.097Z,7.75
2022-10-13T11:13:18.408Z,7.63
2022-10-13T11:15:50.606Z,6.35
2022-10-13T11:19:05.918Z,8.63
2022-10-13T11:22:14.518Z,6.78
2022-10-13T11:24:49.326Z,20.80
2022-10-13T11:27:41.205Z,15.88
2022-10-13T11:30:47.545Z,16.30
2022-10-13T11:33:59.150Z,11.90
2022-10-13T11:36:56.163Z,9.40
2022-10-13T11:40:01.244Z,20.95
2022-10-13T11:42:47.176Z,10.02
2022-10-13T11:45:53.888Z,7.07
2022-10-13T11:48:47.734Z,6.22
2022-10-13T11:51:32.721Z,7.85
2022-10-13T11:54:14.760Z,7.22
2022-10-13T11:56:50.901Z,7.63
2022-10-13T11:59:26.506Z,6.00
2022-10-13T12:02:00.383Z,51.08
2022-10-13T12:04:32.317Z,8.65
2022-10-13T12:07:07.232Z,12.45
2022-10-13T12:09:49.623Z,7.25
2022-10-13T12:12:24.885Z,49.78
2022-10-13T12:14:59.802Z,8.60
2022-10-13T12:17:41.269Z,8.82
2022-10-13T12:20:25.271Z,8.65
2022-10-13T12:22:57.831Z,7.75
2022-10-13T12:25:30.850Z,7.18
2022-10-13T12:28:04.782Z,6.30
2022-10-13T12:30:37.009Z,7.18
2022-10-13T12:33:23.799Z,7.05
2022-10-13T12:35:56.644Z,7.25
2022-10-13T12:38:28.814Z,10.75
2022-10-13T12:41:00.817Z,11.82
2022-10-13T12:43:34.435Z,7.85
2022-10-13T12:46:09.352Z,8.43
2022-10-13T12:48:44.735Z,6.95
2022-10-13T12:51:21.066Z,6.80
2022-10-13T12:53:53.049Z,7.88
2022-10-13T12:56:29.940Z,6.13
2022-10-13T12:59:04.064Z,6.22
2022-10-13T13:01:36.095Z,7.22
2022-10-13T13:04:17.704Z,5.50
2022-10-13T13:06:54.621Z,5.32
2022-10-13T13:09:29.736Z,5.82
2022-10-13T13:12:23.679Z,11.60
2022-10-13T13:14:57.662Z,8.43
2022-10-13T13:17:57.026Z,7.68
2022-10-13T13:20:28.292Z,6.32
2022-10-13T13:23:00.822Z,5.13
2022-10-13T13:25:32.756Z,4.82
2022-10-13T13:28:10.420Z,5.10
2022-10-13T13:30:43.981Z,4.95
2022-10-13T13:33:15.966Z,5.32
2022-10-13T13:35:51.385Z,5.80
2022-10-13T13:38:23.350Z,6.13
2022-10-13T13:40:56.038Z,5.07
2022-10-13T13:43:29.227Z,5.80
2022-10-13T13:46:03.492Z,5.22
2022-10-13T13:48:35.442Z,5.60
2022-10-13T13:51:10.279Z,6.10
2022-10-13T13:53:42.339Z,6.78
2022-10-13T13:56:15.767Z,6.32
2022-10-13T13:58:47.913Z,7.07
2022-10-13T14:01:21.524Z,6.38
2022-10-13T14:03:55.902Z,7.75
2022-10-13T14:06:27.930Z,5.93
2022-10-13T14:08:59.866Z,6.80
2022-10-13T14:11:32.373Z,5.53
2022-10-13T14:14:04.323Z,6.05
2022-10-13T14:16:37.667Z,6.03
2022-10-13T14:19:11.051Z,5.88
2022-10-13T14:21:43.071Z,6.63
2022-10-13T14:24:15.367Z,4.93
2022-10-13T14:26:47.344Z,8.27
2022-10-13T14:29:19.423Z,7.68
2022-10-13T14:31:52.769Z,7.75
2022-10-13T14:34:25.143Z,6.90
2022-10-13T14:36:57.177Z,6.53
2022-10-13T14:39:29.120Z,6.00
2022-10-13T14:42:01.189Z,5.50
2022-10-13T14:44:33.149Z,7.22
2022-10-13T14:47:06.897Z,6.40
2022-10-13T14:49:38.852Z,8.00
2022-10-13T14:52:10.877Z,11.38
2022-10-13T14:54:45.865Z,11.90
2022-10-13T14:57:18.247Z,11.50
2022-10-13T14:59:51.027Z,10.65
2022-10-13T15:02:24.359Z,10.02
2022-10-13T15:04:58.441Z,10.35
2022-10-13T15:07:30.401Z,8.23
2022-10-13T15:10:06.352Z,8.25
2022-10-13T15:12:38.750Z,9.40
2022-10-13T15:15:11.142Z,6.93
2022-10-13T15:17:44.471Z,7.88
2022-10-13T15:20:16.600Z,8.10
2022-10-13T15:22:48.686Z,9.13
2022-10-13T15:25:20.602Z,9.38
2022-10-13T15:27:52.564Z,10.35
2022-10-13T15:30:24.505Z,10.35
2022-10-13T15:32:57.859Z,11.25
2022-10-13T15:35:30.025Z,9.43
2022-10-13T15:38:02.028Z,8.00
2022-10-13T15:40:34.666Z,9.07
2022-10-13T15:43:07.256Z,8.25
2022-10-13T15:45:39.263Z,7.82
2022-10-13T15:48:13.036Z,9.50
2022-10-13T15:50:45.147Z,10.50
2022-10-13T15:53:17.297Z,13.38
2022-10-13T15:55:49.247Z,14.65
2022-10-13T15:58:21.184Z,21.02
2022-10-13T16:00:53.127Z,20.15
2022-10-13T16:03:29.797Z,22.77
2022-10-13T16:06:03.749Z,21.83
2022-10-13T16:08:36.325Z,19.30
2022-10-13T16:11:09.063Z,20.67
2022-10-13T16:13:42.059Z,21.35
2022-10-13T16:16:35.397Z,15.53
2022-10-13T16:19:08.912Z,16.92
2022-10-13T16:21:40.855Z,16.23
2022-10-13T16:24:12.980Z,15.38
2022-10-13T16:26:44.918Z,14.43
2022-10-13T16:29:16.966Z,14.40
2022-10-13T16:31:48.928Z,13.70
2022-10-13T16:34:22.868Z,17.25
2022-10-13T16:36:54.792Z,16.27
2022-10-13T16:39:28.411Z,15.15
2022-10-13T16:42:00.347Z,13.00
2022-10-13T16:44:32.305Z,13.27
2022-10-13T16:47:06.404Z,14.50
2022-10-13T16:49:39.776Z,11.68
2022-10-13T16:52:13.157Z,10.88
2022-10-13T16:54:46.833Z,13.02
2022-10-13T16:57:19.010Z,10.95
2022-10-13T16:59:54.333Z,12.88
2022-10-13T17:02:26.338Z,13.90
2022-10-13T17:04:59.665Z,11.45
2022-10-13T17:07:31.731Z,10.93
2022-10-13T17:10:04.250Z,10.85
2022-10-13T17:12:36.178Z,9.10
2022-10-13T17:15:09.499Z,10.20
2022-10-13T17:17:41.394Z,12.35
2022-10-13T17:20:15.797Z,10.15
2022-10-13T17:22:49.439Z,9.65
2022-10-13T17:25:22.935Z,12.27
2022-10-13T17:27:54.834Z,9.98
2022-10-13T17:30:26.867Z,11.82
2022-10-13T17:33:04.054Z,11.65
2022-10-13T17:35:37.931Z,11.02
2022-10-13T17:38:10.033Z,10.77
2022-10-13T17:40:42.575Z,11.52
2022-10-13T17:43:14.498Z,10.82
2022-10-13T17:45:46.532Z,8.93
2022-10-13T17:48:23.068Z,9.85
2022-10-13T17:51:02.193Z,8.93
2022-10-13T17:53:34.317Z,9.52
2022-10-13T17:56:08.430Z,9.48
2022-10-13T17:58:41.391Z,11.45
2022-10-13T18:01:16.250Z,10.80
2022-10-13T18:03:52.993Z,9.00
2022-10-13T18:06:38.542Z,10.63
2022-10-13T18:09:13.342Z,12.30
2022-10-13T18:11:50.781Z,10.63
2022-10-13T18:14:24.938Z,9.23
2022-10-13T18:16:56.983Z,11.00
2022-10-13T18:19:28.897Z,10.38
2022-10-13T18:22:02.267Z,9.88
2022-10-13T18:24:34.397Z,11.45
2022-10-13T18:27:06.417Z,10.45
2022-10-13T18:29:41.436Z,10.02
2022-10-13T18:32:13.401Z,9.30
2022-10-13T18:34:45.448Z,10.82
2022-10-13T18:37:19.141Z,11.30
2022-10-13T18:39:51.340Z,11.27
2022-10-13T18:42:23.806Z,9.75
2022-10-13T18:44:55.927Z,11.27
2022-10-13T18:47:27.938Z,11.57
2022-10-13T18:49:59.842Z,13.90
2022-10-13T18:52:33.181Z,10.48
2022-10-13T18:55:06.225Z,12.13
2022-10-13T18:57:38.331Z,12.25
2022-10-13T19:00:11.245Z,11.15
2022-10-13T19:02:43.544Z,11.80
2022-10-13T19:05:15.543Z,11.63
2022-10-13T19:07:48.909Z,10.63
2022-10-13T19:10:20.848Z,11.80
2022-10-13T19:12:52.844Z,10.40
2022-10-13T19:15:25.161Z,11.13
2022-10-13T19:17:58.077Z,9.43
2022-10-13T19:20:29.994Z,11.30
2022-10-13T19:23:04.555Z,10.52
2022-10-13T19:25:41.258Z,12.30
2022-10-13T19:28:13.390Z,13.65
2022-10-13T19:30:45.680Z,14.27
2022-10-13T19:33:18.278Z,12.25
2022-10-13T19:35:54.086Z,11.02
2022-10-13T19:38:27.478Z,10.40
2022-10-13T19:41:04.010Z,10.45
2022-10-13T19:43:36.152Z,10.73
2022-10-13T19:46:09.119Z,10.43
2022-10-13T19:48:41.282Z,9.88
2022-10-13T19:51:13.795Z,9.10
2022-10-13T19:53:47.900Z,10.25
2022-10-13T19:56:30.255Z,11.27
2022-10-13T19:59:04.487Z,9.20
2022-10-13T20:01:41.069Z,10.98
2022-10-13T20:04:20.335Z,11.30
2022-10-13T20:06:52.313Z,9.57
2022-10-13T20:09:25.728Z,9.80
2022-10-13T20:11:57.693Z,9.68
2022-10-13T20:14:29.644Z,11.13
2022-10-13T20:17:01.588Z,10.20
2022-10-13T20:19:33.601Z,10.98
2022-10-13T20:22:05.919Z,8.57
2022-10-13T20:24:39.430Z,9.75
2022-10-13T20:27:11.332Z,9.30
2022-10-13T20:29:43.419Z,11.13
2022-10-13T20:32:15.501Z,10.35
2022-10-13T20:34:47.450Z,10.55
2022-10-13T20:37:19.732Z,10.05
2022-10-13T20:39:53.278Z,10.50
2022-10-13T20:42:25.316Z,10.07
2022-10-13T20:44:57.322Z,10.43
2022-10-13T20:47:29.229Z,9.98
2022-10-13T20:50:01.158Z,10.43
2022-10-13T20:52:33.386Z,9.73
2022-10-13T20:55:07.194Z,10.20
2022-10-13T20:57:41.907Z,9.15
2022-10-13T21:00:14.262Z,10.85
2022-10-13T21:02:47.031Z,9.43
2022-10-13T21:05:18.988Z,8.80
2022-10-13T21:07:50.886Z,9.20
2022-10-13T21:10:24.236Z,10.60
2022-10-13T21:12:56.150Z,10.18
2022-10-13T21:15:35.231Z,9.75
2022-10-13T21:18:07.654Z,9.52
2022-10-13T21:20:43.227Z,8.93
2022-10-13T21:23:15.110Z,10.95
2022-10-13T21:25:48.472Z,9.60
2022-10-13T21:28:20.402Z,10.13
2022-10-13T21:31:00.040Z,9.95
2022-10-13T21:33:35.495Z,8.43
2022-10-13T21:36:09.204Z,8.25
2022-10-13T21:38:42.016Z,9.93
2022-10-13T21:41:15.524Z,9.80
2022-10-13T21:43:47.670Z,8.77
2022-10-13T21:46:21.800Z,8.85
2022-10-13T21:48:59.332Z,8.70
2022-10-13T21:51:34.255Z,10.10
2022-10-13T21:54:09.054Z,9.35
2022-10-13T21:56:43.105Z,8.75
2022-10-13T21:59:15.784Z,9.07
2022-10-13T22:01:47.829Z,9.30
2022-10-13T22:04:19.742Z,10.60
2022-10-13T22:06:51.869Z,10.93
2022-10-13T22:09:30.721Z,9.02
2022-10-13T22:12:09.265Z,8.57
2022-10-13T22:14:41.165Z,9.70
2022-10-13T22:17:13.335Z,9.52
2022-10-13T22:19:45.218Z,9.65
2022-10-13T22:22:17.215Z,8.38
2022-10-13T22:24:49.116Z,8.82
2022-10-13T22:27:22.718Z,9.05
2022-10-13T22:29:54.940Z,8.05
2022-10-13T22:32:26.918Z,7.60
2022-10-13T22:34:58.799Z,7.90
2022-10-13T22:37:30.741Z,8.70
2022-10-13T22:40:02.725Z,7.78
2022-10-13T22:42:36.068Z,7.88
2022-10-13T22:45:08.764Z,8.48
2022-10-13T22:47:40.943Z,7.75
2022-10-13T22:50:12.885Z,6.53
2022-10-13T22:52:44.950Z,6.90
2022-10-13T22:55:16.983Z,7.32
2022-10-13T22:57:50.282Z,6.88
2022-10-13T23:00:22.169Z,7.10
2022-10-13T23:02:54.132Z,7.05
2022-10-13T23:05:26.125Z,6.38
2022-10-13T23:07:58.246Z,6.60
2022-10-13T23:10:30.434Z,7.43
2022-10-13T23:13:03.915Z,6.35
2022-10-13T23:15:38.190Z,6.03
2022-10-13T23:18:10.160Z,6.80
2022-10-13T23:20:42.436Z,6.25
2022-10-13T23:23:14.502Z,6.63
2022-10-13T23:25:46.421Z,6.43
2022-10-13T23:28:19.831Z,8.55
2022-10-13T23:30:52.928Z,8.93
2022-10-13T23:33:25.544Z,6.72
2022-10-13T23:35:59.433Z,7.32
2022-10-13T23:38:32.812Z,7.65
2022-10-13T23:41:07.128Z,6.47
2022-10-13T23:43:41.063Z,5.65
2022-10-13T23:46:13.132Z,6.53
2022-10-13T23:48:46.281Z,6.35
2022-10-13T23:51:20.137Z,5.68
2022-10-13T23:53:53.196Z,7.45
2022-10-13T23:56:25.376Z,6.38
2022-10-13T23:59:00.877Z,6.57
